sensor_id;sensor_type;location;lat;lon;timestamp;P1;durP1;ratioP1;P2;durP2;ratioP2
5121;SDS011;2563;52.242;7.956;2022-07-29T00:01:05;2.77;;;1.63;;
5121;SDS011;2563;52.242;7.956;2022-07-29T00:03:30;5.70;;;1.80;;
5121;SDS011;2563;52.242;7.956;2022-07-29T00:05:55;3.90;;;1.87;;
5121;SDS011;2563;52.242;7.956;2022-07-29T00:08:21;8.10;;;2.17;;
5121;SDS011;2563;52.242;7.956;2022-07-29T00:10:46;5.90;;;2.00;;
5121;SDS011;2563;52.242;7.956;2022-07-29T00:13:12;2.43;;;1.50;;
5121;SDS011;2563;52.242;7.956;2022-07-29T00:15:37;6.60;;;1.90;;
5121;SDS011;2563;52.242;7.956;2022-07-29T00:18:03;3.57;;;1.47;;
5121;SDS011;2563;52.242;7.956;2022-07-29T00:20:28;7.47;;;2.10;;
5121;SDS011;2563;52.242;7.956;2022-07-29T00:22:54;4.27;;;1.60;;
5121;SDS011;2563;52.242;7.956;2022-07-29T00:25:19;6.13;;;1.80;;
5121;SDS011;2563;52.242;7.956;2022-07-29T00:27:44;3.87;;;1.60;;
5121;SDS011;2563;52.242;7.956;2022-07-29T00:30:11;3.27;;;1.97;;
5121;SDS011;2563;52.242;7.956;2022-07-29T00:32:37;3.10;;;1.70;;
5121;SDS011;2563;52.242;7.956;2022-07-29T00:35:02;5.83;;;1.83;;
5121;SDS011;2563;52.242;7.956;2022-07-29T00:37:47;3.00;;;1.77;;
5121;SDS011;2563;52.242;7.956;2022-07-29T00:40:12;5.60;;;2.07;;
5121;SDS011;2563;52.242;7.956;2022-07-29T00:42:45;3.13;;;1.87;;
5121;SDS011;2563;52.242;7.956;2022-07-29T00:45:15;3.63;;;1.60;;
5121;SDS011;2563;52.242;7.956;2022-07-29T00:47:40;3.30;;;1.50;;
5121;SDS011;2563;52.242;7.956;2022-07-29T00:50:07;3.30;;;1.57;;
5121;SDS011;2563;52.242;7.956;2022-07-29T00:52:35;2.23;;;1.50;;
5121;SDS011;2563;52.242;7.956;2022-07-29T00:55:03;27.20;;;2.33;;
5121;SDS011;2563;52.242;7.956;2022-07-29T00:57:29;3.03;;;1.70;;
5121;SDS011;2563;52.242;7.956;2022-07-29T00:59:55;3.43;;;1.60;;
5121;SDS011;2563;52.242;7.956;2022-07-29T01:02:20;4.60;;;1.57;;
5121;SDS011;2563;52.242;7.956;2022-07-29T01:04:46;3.17;;;1.57;;
5121;SDS011;2563;52.242;7.956;2022-07-29T01:07:12;4.23;;;1.70;;
5121;SDS011;2563;52.242;7.956;2022-07-29T01:09:38;2.30;;;1.43;;
5121;SDS011;2563;52.242;7.956;2022-07-29T01:12:04;3.33;;;1.47;;
5121;SDS011;2563;52.242;7.956;2022-07-29T01:14:30;4.80;;;2.10;;
5121;SDS011;2563;52.242;7.956;2022-07-29T01:17:00;5.90;;;1.80;;
5121;SDS011;2563;52.242;7.956;2022-07-29T01:24:57;3.40;;;1.50;;
5121;SDS011;2563;52.242;7.956;2022-07-29T01:30:07;6.80;;;1.80;;
5121;SDS011;2563;52.242;7.956;2022-07-29T01:32:33;3.30;;;1.80;;
5121;SDS011;2563;52.242;7.956;2022-07-29T01:35:03;6.83;;;2.00;;
5121;SDS011;2563;52.242;7.956;2022-07-29T01:37:45;5.83;;;2.27;;
5121;SDS011;2563;52.242;7.956;2022-07-29T01:43:00;7.43;;;1.83;;
5121;SDS011;2563;52.242;7.956;2022-07-29T01:45:37;2.80;;;1.63;;
5121;SDS011;2563;52.242;7.956;2022-07-29T01:50:44;4.87;;;1.63;;
5121;SDS011;2563;52.242;7.956;2022-07-29T01:53:14;2.33;;;1.73;;
5121;SDS011;2563;52.242;7.956;2022-07-29T01:55:46;5.90;;;1.80;;
5121;SDS011;2563;52.242;7.956;2022-07-29T01:58:18;9.07;;;2.03;;
5121;SDS011;2563;52.242;7.956;2022-07-29T02:00:45;3.87;;;1.90;;
5121;SDS011;2563;52.242;7.956;2022-07-29T02:03:13;4.17;;;1.80;;
5121;SDS011;2563;52.242;7.956;2022-07-29T02:05:41;6.33;;;2.17;;
5121;SDS011;2563;52.242;7.956;2022-07-29T02:08:08;4.53;;;1.83;;
5121;SDS011;2563;52.242;7.956;2022-07-29T02:10:36;4.40;;;1.60;;
5121;SDS011;2563;52.242;7.956;2022-07-29T02:13:04;2.80;;;1.73;;
5121;SDS011;2563;52.242;7.956;2022-07-29T02:15:32;6.80;;;1.43;;
5121;SDS011;2563;52.242;7.956;2022-07-29T02:18:09;6.60;;;1.80;;
5121;SDS011;2563;52.242;7.956;2022-07-29T02:20:39;3.20;;;1.47;;
5121;SDS011;2563;52.242;7.956;2022-07-29T02:23:11;4.60;;;2.00;;
5121;SDS011;2563;52.242;7.956;2022-07-29T02:25:39;6.73;;;2.10;;
5121;SDS011;2563;52.242;7.956;2022-07-29T02:28:06;2.80;;;1.60;;
5121;SDS011;2563;52.242;7.956;2022-07-29T02:30:32;8.10;;;2.07;;
5121;SDS011;2563;52.242;7.956;2022-07-29T02:33:01;7.30;;;1.90;;
5121;SDS011;2563;52.242;7.956;2022-07-29T02:35:28;3.93;;;1.80;;
5121;SDS011;2563;52.242;7.956;2022-07-29T02:37:54;8.20;;;1.60;;
5121;SDS011;2563;52.242;7.956;2022-07-29T02:40:38;2.50;;;1.57;;
5121;SDS011;2563;52.242;7.956;2022-07-29T02:43:08;3.70;;;1.50;;
5121;SDS011;2563;52.242;7.956;2022-07-29T02:45:35;2.93;;;1.80;;
5121;SDS011;2563;52.242;7.956;2022-07-29T02:48:04;6.20;;;1.90;;
5121;SDS011;2563;52.242;7.956;2022-07-29T02:50:37;3.30;;;1.80;;
5121;SDS011;2563;52.242;7.956;2022-07-29T02:55:40;4.57;;;1.60;;
5121;SDS011;2563;52.242;7.956;2022-07-29T02:58:10;3.10;;;1.93;;
5121;SDS011;2563;52.242;7.956;2022-07-29T03:00:45;3.97;;;1.63;;
5121;SDS011;2563;52.242;7.956;2022-07-29T03:03:15;10.07;;;2.00;;
5121;SDS011;2563;52.242;7.956;2022-07-29T03:05:42;2.93;;;1.60;;
5121;SDS011;2563;52.242;7.956;2022-07-29T03:08:08;16.93;;;2.10;;
5121;SDS011;2563;52.242;7.956;2022-07-29T03:10:35;3.93;;;1.83;;
5121;SDS011;2563;52.242;7.956;2022-07-29T03:13:03;3.77;;;1.87;;
5121;SDS011;2563;52.242;7.956;2022-07-29T03:15:30;3.23;;;1.60;;
5121;SDS011;2563;52.242;7.956;2022-07-29T03:17:56;2.63;;;1.80;;
5121;SDS011;2563;52.242;7.956;2022-07-29T03:20:22;7.53;;;1.60;;
5121;SDS011;2563;52.242;7.956;2022-07-29T03:22:47;7.63;;;2.10;;
5121;SDS011;2563;52.242;7.956;2022-07-29T03:25:14;4.23;;;2.93;;
5121;SDS011;2563;52.242;7.956;2022-07-29T03:27:40;4.03;;;2.10;;
5121;SDS011;2563;52.242;7.956;2022-07-29T03:30:07;3.27;;;1.97;;
5121;SDS011;2563;52.242;7.956;2022-07-29T03:32:33;3.13;;;2.00;;
5121;SDS011;2563;52.242;7.956;2022-07-29T03:34:59;2.20;;;1.47;;
5121;SDS011;2563;52.242;7.956;2022-07-29T03:37:25;7.70;;;2.30;;
5121;SDS011;2563;52.242;7.956;2022-07-29T03:39:51;3.20;;;1.83;;
5121;SDS011;2563;52.242;7.956;2022-07-29T03:42:20;4.03;;;2.13;;
5121;SDS011;2563;52.242;7.956;2022-07-29T03:44:47;4.63;;;1.83;;
5121;SDS011;2563;52.242;7.956;2022-07-29T03:47:15;5.03;;;2.00;;
5121;SDS011;2563;52.242;7.956;2022-07-29T03:49:44;5.73;;;1.87;;
5121;SDS011;2563;52.242;7.956;2022-07-29T03:52:13;3.90;;;1.50;;
5121;SDS011;2563;52.242;7.956;2022-07-29T03:54:38;4.30;;;1.70;;
5121;SDS011;2563;52.242;7.956;2022-07-29T03:57:04;9.20;;;2.03;;
5121;SDS011;2563;52.242;7.956;2022-07-29T03:59:32;5.20;;;1.70;;
5121;SDS011;2563;52.242;7.956;2022-07-29T04:01:58;3.23;;;1.70;;
5121;SDS011;2563;52.242;7.956;2022-07-29T04:04:25;5.70;;;1.93;;
5121;SDS011;2563;52.242;7.956;2022-07-29T04:06:51;5.03;;;2.20;;
5121;SDS011;2563;52.242;7.956;2022-07-29T04:09:16;15.47;;;1.93;;
5121;SDS011;2563;52.242;7.956;2022-07-29T04:11:42;11.17;;;1.90;;
5121;SDS011;2563;52.242;7.956;2022-07-29T04:14:07;2.73;;;1.60;;
5121;SDS011;2563;52.242;7.956;2022-07-29T04:16:33;4.60;;;1.70;;
5121;SDS011;2563;52.242;7.956;2022-07-29T04:18:58;4.23;;;1.80;;
5121;SDS011;2563;52.242;7.956;2022-07-29T04:21:24;5.53;;;2.40;;
5121;SDS011;2563;52.242;7.956;2022-07-29T04:23:49;10.33;;;1.93;;
5121;SDS011;2563;52.242;7.956;2022-07-29T04:26:15;3.90;;;1.90;;
5121;SDS011;2563;52.242;7.956;2022-07-29T04:28:42;3.80;;;1.90;;
5121;SDS011;2563;52.242;7.956;2022-07-29T04:31:07;4.83;;;1.50;;
5121;SDS011;2563;52.242;7.956;2022-07-29T04:33:33;4.20;;;1.90;;
5121;SDS011;2563;52.242;7.956;2022-07-29T04:35:58;3.73;;;1.73;;
5121;SDS011;2563;52.242;7.956;2022-07-29T04:38:24;2.90;;;1.63;;
5121;SDS011;2563;52.242;7.956;2022-07-29T04:40:49;5.43;;;2.10;;
5121;SDS011;2563;52.242;7.956;2022-07-29T04:43:15;4.67;;;1.90;;
5121;SDS011;2563;52.242;7.956;2022-07-29T04:45:41;5.73;;;1.50;;
5121;SDS011;2563;52.242;7.956;2022-07-29T04:48:06;3.30;;;1.70;;
5121;SDS011;2563;52.242;7.956;2022-07-29T04:50:32;5.97;;;2.23;;
5121;SDS011;2563;52.242;7.956;2022-07-29T04:52:57;10.73;;;2.50;;
5121;SDS011;2563;52.242;7.956;2022-07-29T04:55:23;6.03;;;1.83;;
5121;SDS011;2563;52.242;7.956;2022-07-29T04:57:48;3.80;;;1.50;;
5121;SDS011;2563;52.242;7.956;2022-07-29T05:00:13;5.80;;;2.00;;
5121;SDS011;2563;52.242;7.956;2022-07-29T05:02:39;4.47;;;1.80;;
5121;SDS011;2563;52.242;7.956;2022-07-29T05:05:04;4.03;;;1.80;;
5121;SDS011;2563;52.242;7.956;2022-07-29T05:07:30;4.07;;;1.93;;
5121;SDS011;2563;52.242;7.956;2022-07-29T05:09:55;4.10;;;1.87;;
5121;SDS011;2563;52.242;7.956;2022-07-29T05:12:22;4.90;;;1.63;;
5121;SDS011;2563;52.242;7.956;2022-07-29T05:14:48;5.93;;;1.93;;
5121;SDS011;2563;52.242;7.956;2022-07-29T05:17:13;4.80;;;1.70;;
5121;SDS011;2563;52.242;7.956;2022-07-29T05:19:38;5.20;;;1.90;;
5121;SDS011;2563;52.242;7.956;2022-07-29T05:22:04;3.50;;;1.57;;
5121;SDS011;2563;52.242;7.956;2022-07-29T05:24:29;2.93;;;1.47;;
5121;SDS011;2563;52.242;7.956;2022-07-29T05:26:55;4.17;;;2.00;;
5121;SDS011;2563;52.242;7.956;2022-07-29T05:29:20;3.70;;;1.93;;
5121;SDS011;2563;52.242;7.956;2022-07-29T05:31:46;4.13;;;1.80;;
5121;SDS011;2563;52.242;7.956;2022-07-29T05:34:11;4.00;;;1.93;;
5121;SDS011;2563;52.242;7.956;2022-07-29T05:36:36;3.87;;;1.80;;
5121;SDS011;2563;52.242;7.956;2022-07-29T05:39:01;7.53;;;1.63;;
5121;SDS011;2563;52.242;7.956;2022-07-29T05:41:27;3.03;;;1.70;;
5121;SDS011;2563;52.242;7.956;2022-07-29T05:43:52;4.73;;;1.83;;
5121;SDS011;2563;52.242;7.956;2022-07-29T05:46:17;7.03;;;1.83;;
5121;SDS011;2563;52.242;7.956;2022-07-29T05:48:43;4.47;;;2.00;;
5121;SDS011;2563;52.242;7.956;2022-07-29T05:51:08;4.53;;;1.70;;
5121;SDS011;2563;52.242;7.956;2022-07-29T05:53:35;2.70;;;1.50;;
5121;SDS011;2563;52.242;7.956;2022-07-29T05:56:02;4.60;;;1.77;;
5121;SDS011;2563;52.242;7.956;2022-07-29T05:58:29;5.60;;;1.70;;
5121;SDS011;2563;52.242;7.956;2022-07-29T06:00:55;5.20;;;2.00;;
5121;SDS011;2563;52.242;7.956;2022-07-29T06:03:24;11.10;;;1.73;;
5121;SDS011;2563;52.242;7.956;2022-07-29T06:05:49;4.27;;;1.97;;
5121;SDS011;2563;52.242;7.956;2022-07-29T06:08:14;9.00;;;1.90;;
5121;SDS011;2563;52.242;7.956;2022-07-29T06:10:40;6.07;;;1.80;;
5121;SDS011;2563;52.242;7.956;2022-07-29T06:13:05;5.63;;;1.83;;
5121;SDS011;2563;52.242;7.956;2022-07-29T06:15:31;4.10;;;1.90;;
5121;SDS011;2563;52.242;7.956;2022-07-29T06:17:56;3.13;;;1.50;;
5121;SDS011;2563;52.242;7.956;2022-07-29T06:20:22;6.40;;;2.17;;
5121;SDS011;2563;52.242;7.956;2022-07-29T06:22:47;9.70;;;2.03;;
5121;SDS011;2563;52.242;7.956;2022-07-29T06:25:12;5.43;;;1.80;;
5121;SDS011;2563;52.242;7.956;2022-07-29T06:27:38;2.43;;;1.40;;
5121;SDS011;2563;52.242;7.956;2022-07-29T06:30:03;2.93;;;1.60;;
5121;SDS011;2563;52.242;7.956;2022-07-29T06:32:32;6.07;;;1.67;;
5121;SDS011;2563;52.242;7.956;2022-07-29T06:34:57;5.93;;;1.73;;
5121;SDS011;2563;52.242;7.956;2022-07-29T06:37:23;3.70;;;1.50;;
5121;SDS011;2563;52.242;7.956;2022-07-29T06:39:48;3.50;;;1.90;;
5121;SDS011;2563;52.242;7.956;2022-07-29T06:42:33;3.30;;;1.67;;
5121;SDS011;2563;52.242;7.956;2022-07-29T06:44:59;3.73;;;1.63;;
5121;SDS011;2563;52.242;7.956;2022-07-29T06:47:24;4.57;;;1.77;;
5121;SDS011;2563;52.242;7.956;2022-07-29T06:49:49;2.43;;;1.70;;
5121;SDS011;2563;52.242;7.956;2022-07-29T06:52:15;5.13;;;2.10;;
5121;SDS011;2563;52.242;7.956;2022-07-29T06:54:40;4.83;;;2.33;;
5121;SDS011;2563;52.242;7.956;2022-07-29T06:57:12;3.67;;;1.90;;
5121;SDS011;2563;52.242;7.956;2022-07-29T06:59:37;2.60;;;1.73;;
5121;SDS011;2563;52.242;7.956;2022-07-29T07:02:03;4.20;;;1.90;;
5121;SDS011;2563;52.242;7.956;2022-07-29T07:04:28;11.33;;;1.80;;
5121;SDS011;2563;52.242;7.956;2022-07-29T07:06:54;10.07;;;2.33;;
5121;SDS011;2563;52.242;7.956;2022-07-29T07:09:20;6.97;;;2.00;;
5121;SDS011;2563;52.242;7.956;2022-07-29T07:11:45;3.53;;;1.87;;
5121;SDS011;2563;52.242;7.956;2022-07-29T07:14:11;7.33;;;1.70;;
5121;SDS011;2563;52.242;7.956;2022-07-29T07:16:36;2.90;;;1.60;;
5121;SDS011;2563;52.242;7.956;2022-07-29T07:19:01;13.43;;;2.13;;
5121;SDS011;2563;52.242;7.956;2022-07-29T07:21:27;3.73;;;1.93;;
5121;SDS011;2563;52.242;7.956;2022-07-29T07:23:52;3.53;;;1.80;;
5121;SDS011;2563;52.242;7.956;2022-07-29T07:26:18;3.53;;;1.90;;
5121;SDS011;2563;52.242;7.956;2022-07-29T07:28:43;5.07;;;2.23;;
5121;SDS011;2563;52.242;7.956;2022-07-29T07:31:09;8.53;;;2.20;;
5121;SDS011;2563;52.242;7.956;2022-07-29T07:33:34;7.93;;;2.00;;
5121;SDS011;2563;52.242;7.956;2022-07-29T07:36:00;2.97;;;1.70;;
5121;SDS011;2563;52.242;7.956;2022-07-29T07:38:25;2.60;;;1.73;;
5121;SDS011;2563;52.242;7.956;2022-07-29T07:40:50;8.53;;;2.30;;
5121;SDS011;2563;52.242;7.956;2022-07-29T07:43:16;10.03;;;1.90;;
5121;SDS011;2563;52.242;7.956;2022-07-29T07:45:41;5.53;;;1.80;;
5121;SDS011;2563;52.242;7.956;2022-07-29T07:48:06;4.40;;;2.27;;
5121;SDS011;2563;52.242;7.956;2022-07-29T07:50:35;8.20;;;2.00;;
5121;SDS011;2563;52.242;7.956;2022-07-29T07:53:00;5.10;;;1.80;;
5121;SDS011;2563;52.242;7.956;2022-07-29T07:55:27;2.63;;;1.90;;
5121;SDS011;2563;52.242;7.956;2022-07-29T07:57:53;4.07;;;1.93;;
5121;SDS011;2563;52.242;7.956;2022-07-29T08:00:19;3.27;;;1.93;;
5121;SDS011;2563;52.242;7.956;2022-07-29T08:02:45;3.90;;;2.17;;
5121;SDS011;2563;52.242;7.956;2022-07-29T08:05:11;4.30;;;1.90;;
5121;SDS011;2563;52.242;7.956;2022-07-29T08:07:41;4.67;;;1.97;;
5121;SDS011;2563;52.242;7.956;2022-07-29T08:10:07;6.97;;;1.80;;
5121;SDS011;2563;52.242;7.956;2022-07-29T08:12:32;5.87;;;2.23;;
5121;SDS011;2563;52.242;7.956;2022-07-29T08:14:58;4.23;;;1.90;;
5121;SDS011;2563;52.242;7.956;2022-07-29T08:17:23;6.63;;;1.53;;
5121;SDS011;2563;52.242;7.956;2022-07-29T08:19:49;12.03;;;1.80;;
5121;SDS011;2563;52.242;7.956;2022-07-29T08:22:14;4.60;;;1.63;;
5121;SDS011;2563;52.242;7.956;2022-07-29T08:24:40;3.30;;;2.00;;
5121;SDS011;2563;52.242;7.956;2022-07-29T08:27:09;5.20;;;1.90;;
5121;SDS011;2563;52.242;7.956;2022-07-29T08:29:37;5.30;;;2.40;;
5121;SDS011;2563;52.242;7.956;2022-07-29T08:32:03;5.30;;;2.43;;
5121;SDS011;2563;52.242;7.956;2022-07-29T08:34:29;4.33;;;1.67;;
5121;SDS011;2563;52.242;7.956;2022-07-29T08:36:55;4.80;;;1.57;;
5121;SDS011;2563;52.242;7.956;2022-07-29T08:39:21;9.90;;;2.00;;
5121;SDS011;2563;52.242;7.956;2022-07-29T08:41:47;4.57;;;1.90;;
5121;SDS011;2563;52.242;7.956;2022-07-29T08:44:12;4.30;;;2.20;;
5121;SDS011;2563;52.242;7.956;2022-07-29T08:46:41;3.60;;;1.80;;
5121;SDS011;2563;52.242;7.956;2022-07-29T08:49:07;3.40;;;1.60;;
5121;SDS011;2563;52.242;7.956;2022-07-29T08:51:32;5.87;;;1.80;;
5121;SDS011;2563;52.242;7.956;2022-07-29T08:54:00;4.43;;;1.90;;
5121;SDS011;2563;52.242;7.956;2022-07-29T08:56:26;2.63;;;1.63;;
5121;SDS011;2563;52.242;7.956;2022-07-29T08:58:52;8.60;;;2.00;;
5121;SDS011;2563;52.242;7.956;2022-07-29T09:01:22;4.27;;;2.10;;
5121;SDS011;2563;52.242;7.956;2022-07-29T09:03:48;7.07;;;2.27;;
5121;SDS011;2563;52.242;7.956;2022-07-29T09:06:14;3.83;;;1.60;;
5121;SDS011;2563;52.242;7.956;2022-07-29T09:08:42;4.57;;;2.27;;
5121;SDS011;2563;52.242;7.956;2022-07-29T09:11:09;4.50;;;2.13;;
5121;SDS011;2563;52.242;7.956;2022-07-29T09:13:36;4.17;;;1.70;;
5121;SDS011;2563;52.242;7.956;2022-07-29T09:16:01;3.67;;;2.47;;
5121;SDS011;2563;52.242;7.956;2022-07-29T09:18:34;8.53;;;2.40;;
5121;SDS011;2563;52.242;7.956;2022-07-29T09:21:04;5.03;;;2.10;;
5121;SDS011;2563;52.242;7.956;2022-07-29T09:24:02;3.70;;;1.80;;
5121;SDS011;2563;52.242;7.956;2022-07-29T09:26:33;4.90;;;1.90;;
5121;SDS011;2563;52.242;7.956;2022-07-29T09:29:01;8.27;;;2.53;;
5121;SDS011;2563;52.242;7.956;2022-07-29T09:31:37;11.40;;;2.50;;
5121;SDS011;2563;52.242;7.956;2022-07-29T09:34:04;5.63;;;1.70;;
5121;SDS011;2563;52.242;7.956;2022-07-29T09:36:31;5.77;;;1.80;;
5121;SDS011;2563;52.242;7.956;2022-07-29T09:39:04;6.00;;;1.90;;
5121;SDS011;2563;52.242;7.956;2022-07-29T09:41:29;5.23;;;1.80;;
5121;SDS011;2563;52.242;7.956;2022-07-29T09:44:08;6.50;;;2.70;;
5121;SDS011;2563;52.242;7.956;2022-07-29T09:46:33;4.27;;;1.70;;
5121;SDS011;2563;52.242;7.956;2022-07-29T09:49:09;8.77;;;2.00;;
5121;SDS011;2563;52.242;7.956;2022-07-29T09:51:36;5.57;;;1.97;;
5121;SDS011;2563;52.242;7.956;2022-07-29T09:54:03;5.90;;;1.77;;
5121;SDS011;2563;52.242;7.956;2022-07-29T09:56:47;5.07;;;2.10;;
5121;SDS011;2563;52.242;7.956;2022-07-29T09:59:13;4.30;;;2.17;;
5121;SDS011;2563;52.242;7.956;2022-07-29T10:01:38;10.20;;;2.13;;
5121;SDS011;2563;52.242;7.956;2022-07-29T10:04:04;12.70;;;2.20;;
5121;SDS011;2563;52.242;7.956;2022-07-29T10:06:30;4.90;;;1.83;;
5121;SDS011;2563;52.242;7.956;2022-07-29T10:09:06;10.70;;;2.77;;
5121;SDS011;2563;52.242;7.956;2022-07-29T10:11:33;8.43;;;2.10;;
5121;SDS011;2563;52.242;7.956;2022-07-29T10:13:58;3.93;;;2.03;;
5121;SDS011;2563;52.242;7.956;2022-07-29T10:16:24;4.70;;;2.13;;
5121;SDS011;2563;52.242;7.956;2022-07-29T10:18:50;6.43;;;2.20;;
5121;SDS011;2563;52.242;7.956;2022-07-29T10:21:16;10.23;;;2.37;;
5121;SDS011;2563;52.242;7.956;2022-07-29T10:23:41;8.63;;;2.17;;
5121;SDS011;2563;52.242;7.956;2022-07-29T10:26:08;9.10;;;2.10;;
5121;SDS011;2563;52.242;7.956;2022-07-29T10:28:35;8.80;;;1.97;;
5121;SDS011;2563;52.242;7.956;2022-07-29T10:31:02;4.70;;;2.00;;
5121;SDS011;2563;52.242;7.956;2022-07-29T10:42:11;4.33;;;1.63;;
5121;SDS011;2563;52.242;7.956;2022-07-29T10:44:43;9.47;;;2.23;;
5121;SDS011;2563;52.242;7.956;2022-07-29T10:47:25;5.60;;;2.57;;
5121;SDS011;2563;52.242;7.956;2022-07-29T10:50:02;7.23;;;2.00;;
5121;SDS011;2563;52.242;7.956;2022-07-29T10:55:33;4.90;;;1.93;;
5121;SDS011;2563;52.242;7.956;2022-07-29T10:58:22;5.93;;;2.20;;
5121;SDS011;2563;52.242;7.956;2022-07-29T11:00:52;4.10;;;1.90;;
5121;SDS011;2563;52.242;7.956;2022-07-29T11:06:10;6.60;;;2.27;;
5121;SDS011;2563;52.242;7.956;2022-07-29T11:08:36;6.10;;;2.03;;
5121;SDS011;2563;52.242;7.956;2022-07-29T11:16:15;34.17;;;2.57;;
5121;SDS011;2563;52.242;7.956;2022-07-29T11:21:36;5.10;;;2.10;;
5121;SDS011;2563;52.242;7.956;2022-07-29T11:24:13;5.70;;;2.10;;
5121;SDS011;2563;52.242;7.956;2022-07-29T11:26:42;7.77;;;2.07;;
5121;SDS011;2563;52.242;7.956;2022-07-29T11:29:20;4.53;;;2.03;;
5121;SDS011;2563;52.242;7.956;2022-07-29T11:31:50;9.63;;;2.30;;
5121;SDS011;2563;52.242;7.956;2022-07-29T11:44:58;47.37;;;5.07;;
5121;SDS011;2563;52.242;7.956;2022-07-29T11:47:26;6.23;;;2.50;;
5121;SDS011;2563;52.242;7.956;2022-07-29T11:49:53;9.90;;;2.43;;
5121;SDS011;2563;52.242;7.956;2022-07-29T11:52:21;6.50;;;3.10;;
5121;SDS011;2563;52.242;7.956;2022-07-29T11:54:47;7.10;;;2.40;;
5121;SDS011;2563;52.242;7.956;2022-07-29T11:57:17;4.07;;;2.10;;
5121;SDS011;2563;52.242;7.956;2022-07-29T11:59:45;5.93;;;2.27;;
5121;SDS011;2563;52.242;7.956;2022-07-29T12:02:12;15.63;;;2.50;;
5121;SDS011;2563;52.242;7.956;2022-07-29T12:04:49;3.80;;;2.07;;
5121;SDS011;2563;52.242;7.956;2022-07-29T12:07:25;5.03;;;2.13;;
5121;SDS011;2563;52.242;7.956;2022-07-29T12:09:54;5.37;;;2.50;;
5121;SDS011;2563;52.242;7.956;2022-07-29T12:12:19;3.13;;;2.27;;
5121;SDS011;2563;52.242;7.956;2022-07-29T12:14:45;4.73;;;2.40;;
5121;SDS011;2563;52.242;7.956;2022-07-29T12:19:59;4.23;;;2.07;;
5121;SDS011;2563;52.242;7.956;2022-07-29T12:22:29;5.90;;;1.83;;
5121;SDS011;2563;52.242;7.956;2022-07-29T12:25:00;6.53;;;2.17;;
5121;SDS011;2563;52.242;7.956;2022-07-29T12:27:27;8.33;;;2.67;;
5121;SDS011;2563;52.242;7.956;2022-07-29T12:29:56;3.67;;;2.17;;
5121;SDS011;2563;52.242;7.956;2022-07-29T12:32:30;10.47;;;2.70;;
5121;SDS011;2563;52.242;7.956;2022-07-29T12:34:56;8.20;;;2.40;;
5121;SDS011;2563;52.242;7.956;2022-07-29T12:37:22;2.50;;;1.77;;
5121;SDS011;2563;52.242;7.956;2022-07-29T12:39:47;6.73;;;1.90;;
5121;SDS011;2563;52.242;7.956;2022-07-29T12:42:14;8.33;;;2.40;;
5121;SDS011;2563;52.242;7.956;2022-07-29T12:44:44;10.80;;;2.40;;
5121;SDS011;2563;52.242;7.956;2022-07-29T12:47:10;5.90;;;2.30;;
5121;SDS011;2563;52.242;7.956;2022-07-29T12:49:36;9.00;;;2.30;;
5121;SDS011;2563;52.242;7.956;2022-07-29T12:52:01;4.47;;;2.30;;
5121;SDS011;2563;52.242;7.956;2022-07-29T12:54:49;5.30;;;2.70;;
5121;SDS011;2563;52.242;7.956;2022-07-29T12:57:15;5.93;;;2.90;;
5121;SDS011;2563;52.242;7.956;2022-07-29T12:59:40;7.23;;;2.63;;
5121;SDS011;2563;52.242;7.956;2022-07-29T13:02:06;4.23;;;2.20;;
5121;SDS011;2563;52.242;7.956;2022-07-29T13:04:32;11.90;;;3.07;;
5121;SDS011;2563;52.242;7.956;2022-07-29T13:07:05;6.90;;;2.40;;
5121;SDS011;2563;52.242;7.956;2022-07-29T13:09:36;6.87;;;2.70;;
5121;SDS011;2563;52.242;7.956;2022-07-29T13:12:06;4.30;;;2.43;;
5121;SDS011;2563;52.242;7.956;2022-07-29T13:14:35;7.10;;;3.20;;
5121;SDS011;2563;52.242;7.956;2022-07-29T13:22:10;17.70;;;3.63;;
5121;SDS011;2563;52.242;7.956;2022-07-29T13:24:47;8.63;;;3.60;;
5121;SDS011;2563;52.242;7.956;2022-07-29T13:27:23;6.47;;;2.90;;
5121;SDS011;2563;52.242;7.956;2022-07-29T13:29:50;12.03;;;3.17;;
5121;SDS011;2563;52.242;7.956;2022-07-29T13:32:17;7.80;;;3.30;;
5121;SDS011;2563;52.242;7.956;2022-07-29T13:34:43;5.10;;;3.57;;
5121;SDS011;2563;52.242;7.956;2022-07-29T13:37:08;5.97;;;3.53;;
5121;SDS011;2563;52.242;7.956;2022-07-29T13:39:34;7.70;;;3.27;;
5121;SDS011;2563;52.242;7.956;2022-07-29T13:41:59;12.97;;;3.57;;
5121;SDS011;2563;52.242;7.956;2022-07-29T13:44:25;5.77;;;3.00;;
5121;SDS011;2563;52.242;7.956;2022-07-29T13:46:50;5.83;;;3.20;;
5121;SDS011;2563;52.242;7.956;2022-07-29T13:49:15;7.30;;;2.83;;
5121;SDS011;2563;52.242;7.956;2022-07-29T13:51:41;8.83;;;3.33;;
5121;SDS011;2563;52.242;7.956;2022-07-29T13:54:06;7.33;;;3.03;;
5121;SDS011;2563;52.242;7.956;2022-07-29T13:56:32;7.67;;;3.10;;
5121;SDS011;2563;52.242;7.956;2022-07-29T13:58:57;6.30;;;3.03;;
5121;SDS011;2563;52.242;7.956;2022-07-29T14:01:23;10.13;;;3.60;;
5121;SDS011;2563;52.242;7.956;2022-07-29T14:03:49;12.20;;;3.97;;
5121;SDS011;2563;52.242;7.956;2022-07-29T14:06:14;7.97;;;3.40;;
5121;SDS011;2563;52.242;7.956;2022-07-29T14:08:40;9.60;;;3.50;;
5121;SDS011;2563;52.242;7.956;2022-07-29T14:11:05;5.30;;;3.17;;
5121;SDS011;2563;52.242;7.956;2022-07-29T14:13:31;8.27;;;3.30;;
5121;SDS011;2563;52.242;7.956;2022-07-29T14:15:56;4.47;;;3.20;;
5121;SDS011;2563;52.242;7.956;2022-07-29T14:18:22;16.90;;;3.67;;
5121;SDS011;2563;52.242;7.956;2022-07-29T14:20:47;6.87;;;3.17;;
5121;SDS011;2563;52.242;7.956;2022-07-29T14:23:13;6.93;;;2.73;;
5121;SDS011;2563;52.242;7.956;2022-07-29T14:25:38;4.07;;;2.93;;
5121;SDS011;2563;52.242;7.956;2022-07-29T14:28:03;13.23;;;3.50;;
5121;SDS011;2563;52.242;7.956;2022-07-29T14:30:29;10.10;;;5.30;;
5121;SDS011;2563;52.242;7.956;2022-07-29T14:32:54;8.33;;;3.03;;
5121;SDS011;2563;52.242;7.956;2022-07-29T14:35:20;7.90;;;3.30;;
5121;SDS011;2563;52.242;7.956;2022-07-29T14:37:45;10.53;;;3.07;;
5121;SDS011;2563;52.242;7.956;2022-07-29T14:40:10;5.00;;;2.83;;
5121;SDS011;2563;52.242;7.956;2022-07-29T14:42:36;8.57;;;3.10;;
5121;SDS011;2563;52.242;7.956;2022-07-29T14:45:02;8.53;;;3.07;;
5121;SDS011;2563;52.242;7.956;2022-07-29T14:47:29;8.00;;;2.77;;
5121;SDS011;2563;52.242;7.956;2022-07-29T14:49:54;7.20;;;2.83;;
5121;SDS011;2563;52.242;7.956;2022-07-29T14:52:20;8.43;;;2.70;;
5121;SDS011;2563;52.242;7.956;2022-07-29T14:54:45;9.27;;;2.90;;
5121;SDS011;2563;52.242;7.956;2022-07-29T14:57:11;8.70;;;3.93;;
5121;SDS011;2563;52.242;7.956;2022-07-29T14:59:36;9.27;;;3.33;;
5121;SDS011;2563;52.242;7.956;2022-07-29T15:02:01;9.67;;;3.30;;
5121;SDS011;2563;52.242;7.956;2022-07-29T15:04:27;5.30;;;2.60;;
5121;SDS011;2563;52.242;7.956;2022-07-29T15:06:52;10.03;;;2.63;;
5121;SDS011;2563;52.242;7.956;2022-07-29T15:09:17;6.27;;;2.67;;
5121;SDS011;2563;52.242;7.956;2022-07-29T15:11:43;5.17;;;2.60;;
5121;SDS011;2563;52.242;7.956;2022-07-29T15:14:09;5.97;;;2.50;;
5121;SDS011;2563;52.242;7.956;2022-07-29T15:16:35;9.90;;;3.17;;
5121;SDS011;2563;52.242;7.956;2022-07-29T15:19:01;12.53;;;2.93;;
5121;SDS011;2563;52.242;7.956;2022-07-29T15:21:27;4.20;;;2.53;;
5121;SDS011;2563;52.242;7.956;2022-07-29T15:23:52;5.37;;;2.77;;
5121;SDS011;2563;52.242;7.956;2022-07-29T15:26:18;6.87;;;2.93;;
5121;SDS011;2563;52.242;7.956;2022-07-29T15:28:44;6.13;;;2.70;;
5121;SDS011;2563;52.242;7.956;2022-07-29T15:31:09;7.80;;;2.80;;
5121;SDS011;2563;52.242;7.956;2022-07-29T15:33:34;5.23;;;2.40;;
5121;SDS011;2563;52.242;7.956;2022-07-29T15:36:00;5.03;;;2.50;;
5121;SDS011;2563;52.242;7.956;2022-07-29T15:38:25;6.77;;;3.00;;
5121;SDS011;2563;52.242;7.956;2022-07-29T15:40:50;4.60;;;2.33;;
5121;SDS011;2563;52.242;7.956;2022-07-29T15:43:16;3.87;;;2.53;;
5121;SDS011;2563;52.242;7.956;2022-07-29T15:45:41;5.20;;;2.63;;
5121;SDS011;2563;52.242;7.956;2022-07-29T15:48:30;5.43;;;2.40;;
5121;SDS011;2563;52.242;7.956;2022-07-29T15:50:56;4.93;;;2.70;;
5121;SDS011;2563;52.242;7.956;2022-07-29T15:53:23;6.00;;;2.77;;
5121;SDS011;2563;52.242;7.956;2022-07-29T15:55:49;4.70;;;2.53;;
5121;SDS011;2563;52.242;7.956;2022-07-29T15:58:15;5.37;;;2.97;;
5121;SDS011;2563;52.242;7.956;2022-07-29T16:00:40;4.70;;;2.63;;
5121;SDS011;2563;52.242;7.956;2022-07-29T16:03:06;9.80;;;2.53;;
5121;SDS011;2563;52.242;7.956;2022-07-29T16:05:32;4.47;;;2.30;;
5121;SDS011;2563;52.242;7.956;2022-07-29T16:07:57;6.90;;;2.67;;
5121;SDS011;2563;52.242;7.956;2022-07-29T16:10:24;6.53;;;2.60;;
5121;SDS011;2563;52.242;7.956;2022-07-29T16:12:50;4.93;;;2.70;;